createdAt,value
2023-05-05T00:00:41.066Z,98218.41
2023-05-05T00:03:43.783Z,98213.50
2023-05-05T00:06:47.960Z,98213.31
2023-05-05T00:09:50.664Z,98211.41
2023-05-05T00:12:53.394Z,98206.00
2023-05-05T00:15:56.205Z,98210.59
2023-05-05T00:19:00.218Z,98203.91
2023-05-05T00:22:04.269Z,98203.41
2023-05-05T00:25:07.707Z,98203.22
2023-05-05T00:28:10.570Z,98205.94
2023-05-05T00:31:13.329Z,98200.34
2023-05-05T00:34:16.011Z,98198.75
2023-05-05T00:37:20.096Z,98204.25
2023-05-05T00:40:23.498Z,98206.16
2023-05-05T00:43:26.356Z,98203.59
2023-05-05T00:46:31.322Z,98206.19
2023-05-05T00:49:34.165Z,98205.72
2023-05-05T00:52:38.962Z,98215.06
2023-05-05T00:55:41.940Z,98200.44
2023-05-05T00:58:45.379Z,98200.84
2023-05-05T01:01:48.180Z,98202.06
2023-05-05T01:04:51.005Z,98195.56
2023-05-05T01:08:19.774Z,98203.78
2023-05-05T01:11:27.989Z,98200.38
2023-05-05T01:14:40.815Z,98195.75
2023-05-05T01:17:53.487Z,98202.28
2023-05-05T01:21:02.854Z,98191.47
2023-05-05T01:24:39.832Z,98189.78
2023-05-05T01:28:06.331Z,98190.97
2023-05-05T01:31:24.814Z,98192.06
2023-05-05T01:34:34.618Z,98191.88
2023-05-05T01:37:44.433Z,98185.28
2023-05-05T01:40:51.024Z,98194.09
2023-05-05T01:43:55.379Z,98197.28
2023-05-05T01:47:00.695Z,98195.28
2023-05-05T01:50:07.296Z,98199.97
2023-05-05T01:53:11.495Z,98195.00
2023-05-05T01:56:15.428Z,98198.47
2023-05-05T01:59:19.841Z,98195.78
2023-05-05T02:02:24.312Z,98196.88
2023-05-05T02:05:29.094Z,98204.69
2023-05-05T02:08:33.813Z,98197.19
2023-05-05T02:11:37.032Z,98199.59
2023-05-05T02:14:41.576Z,98204.78
2023-05-05T02:17:44.822Z,98206.97
2023-05-05T02:20:49.103Z,98217.47
2023-05-05T02:23:51.937Z,98214.78
2023-05-05T02:26:57.198Z,98216.16
2023-05-05T02:30:03.065Z,98215.59
2023-05-05T02:33:09.637Z,98212.97
2023-05-05T02:36:18.813Z,98224.94
2023-05-05T02:39:27.368Z,98213.66
2023-05-05T02:42:36.312Z,98221.22
2023-05-05T02:45:39.171Z,98219.66
2023-05-05T02:48:41.879Z,98225.72
2023-05-05T02:51:46.016Z,98222.00
2023-05-05T02:54:48.781Z,98227.72
2023-05-05T02:57:57.997Z,98223.16
2023-05-05T03:01:09.531Z,98231.56
2023-05-05T03:04:17.010Z,98228.84
2023-05-05T03:07:26.306Z,98236.94
2023-05-05T03:10:32.949Z,98237.75
2023-05-05T03:13:37.623Z,98241.03
2023-05-05T03:16:42.714Z,98244.63
2023-05-05T03:19:45.987Z,98239.75
2023-05-05T03:22:50.338Z,98238.13
2023-05-05T03:25:53.200Z,98234.84
2023-05-05T03:28:56.006Z,98237.47
2023-05-05T03:31:59.339Z,98233.41
2023-05-05T03:35:02.049Z,98237.91
2023-05-05T03:38:06.252Z,98238.91
2023-05-05T03:41:08.936Z,98229.63
2023-05-05T03:44:11.702Z,98237.94
2023-05-05T03:47:14.524Z,98234.84
2023-05-05T03:50:17.589Z,98238.75
2023-05-05T03:53:21.640Z,98235.69
2023-05-05T03:56:24.491Z,98243.09
2023-05-05T03:59:27.211Z,98238.59
2023-05-05T04:02:30.016Z,98241.41
2023-05-05T04:05:32.960Z,98240.50
2023-05-05T04:08:37.106Z,98239.91
2023-05-05T04:11:39.891Z,98244.41
2023-05-05T04:14:42.538Z,98236.28
2023-05-05T04:17:45.560Z,98246.22
2023-05-05T04:20:48.599Z,98244.81
2023-05-05T04:23:52.855Z,98241.19
2023-05-05T04:26:55.681Z,98233.28
2023-05-05T04:29:58.364Z,98234.59
2023-05-05T04:33:01.188Z,98234.00
2023-05-05T04:36:03.968Z,98233.56
2023-05-05T04:39:08.668Z,98241.28
2023-05-05T04:42:11.565Z,98246.59
2023-05-05T04:45:14.406Z,98247.00
2023-05-05T04:48:17.167Z,98254.09
2023-05-05T04:51:19.858Z,98248.75
2023-05-05T04:54:24.285Z,98262.84
2023-05-05T04:57:27.345Z,98255.59
2023-05-05T05:00:30.449Z,98258.88
2023-05-05T05:03:33.158Z,98269.94
2023-05-05T05:06:36.049Z,98267.13
2023-05-05T05:09:40.200Z,98270.19
2023-05-05T05:12:43.011Z,98275.19
2023-05-05T05:15:46.559Z,98277.94
2023-05-05T05:18:49.296Z,98272.41
2023-05-05T05:21:52.004Z,98272.97
2023-05-05T05:24:56.094Z,98283.25
2023-05-05T05:28:09.419Z,98281.22
2023-05-05T05:31:13.353Z,98280.75
2023-05-05T05:34:16.050Z,98278.22
2023-05-05T05:37:18.834Z,98285.44
2023-05-05T05:40:22.976Z,98286.09
2023-05-05T05:43:25.661Z,98286.25
2023-05-05T05:46:28.440Z,98295.25
2023-05-05T05:49:31.205Z,98297.66
2023-05-05T05:52:36.090Z,98293.59
2023-05-05T05:55:40.264Z,98302.09
2023-05-05T05:58:42.948Z,98300.75
2023-05-05T06:01:45.564Z,98300.78
2023-05-05T06:04:48.417Z,98299.53
2023-05-05T06:07:51.124Z,98301.75
2023-05-05T06:10:55.158Z,98296.50
2023-05-05T06:13:58.624Z,98297.75
2023-05-05T06:17:01.423Z,98292.66
2023-05-05T06:20:05.388Z,98300.16
2023-05-05T06:23:08.385Z,98301.59
2023-05-05T06:26:12.401Z,98298.88
2023-05-05T06:29:15.290Z,98301.09
2023-05-05T06:32:18.214Z,98297.72
2023-05-05T06:35:20.932Z,98297.22
2023-05-05T06:38:23.826Z,98304.22
2023-05-05T06:41:27.910Z,98310.63
2023-05-05T06:44:31.893Z,98307.22
2023-05-05T06:47:34.948Z,98302.94
2023-05-05T06:50:37.820Z,98300.53
2023-05-05T06:53:40.872Z,98317.97
2023-05-05T06:56:45.529Z,98315.56
2023-05-05T06:59:48.391Z,98312.84
2023-05-05T07:02:51.426Z,98321.16
2023-05-05T07:05:54.934Z,98320.69
2023-05-05T07:08:57.903Z,98319.06
2023-05-05T07:12:02.068Z,98318.78
2023-05-05T07:15:19.187Z,98324.97
2023-05-05T07:18:28.736Z,98318.09
2023-05-05T07:21:31.630Z,98322.09
2023-05-05T07:24:34.972Z,98320.63
2023-05-05T07:27:40.454Z,98331.69
2023-05-05T07:30:43.311Z,98331.22
2023-05-05T07:33:46.252Z,98332.78
2023-05-05T07:36:49.229Z,98327.06
2023-05-05T07:39:52.052Z,98323.88
2023-05-05T07:42:56.362Z,98332.03
2023-05-05T07:45:59.275Z,98331.88
2023-05-05T07:49:02.139Z,98332.38
2023-05-05T07:52:05.181Z,98331.56
2023-05-05T07:55:08.229Z,98343.38
2023-05-05T07:58:12.540Z,98344.50
2023-05-05T08:01:15.903Z,98346.25
2023-05-05T08:04:18.658Z,98349.28
2023-05-05T08:07:21.904Z,98352.34
2023-05-05T08:10:24.951Z,98346.63
2023-05-05T08:13:30.225Z,98344.19
2023-05-05T08:16:33.254Z,98351.41
2023-05-05T08:19:36.164Z,98355.09
2023-05-05T08:22:39.153Z,98347.59
2023-05-05T08:25:42.082Z,98349.34
2023-05-05T08:28:47.241Z,98349.53
2023-05-05T08:31:50.577Z,98358.81
2023-05-05T08:34:53.652Z,98358.31
2023-05-05T08:37:58.935Z,98352.41
2023-05-05T08:41:02.099Z,98354.47
2023-05-05T08:44:06.662Z,98361.03
2023-05-05T08:47:12.375Z,98346.66
2023-05-05T08:50:15.928Z,98345.84
2023-05-05T08:53:23.181Z,98341.69
2023-05-05T08:56:28.231Z,98349.03
2023-05-05T08:59:34.011Z,98350.47
2023-05-05T09:02:38.069Z,98350.47
2023-05-05T09:05:43.114Z,98365.66
2023-05-05T09:08:46.408Z,98356.38
2023-05-05T09:11:49.497Z,98359.72
2023-05-05T09:14:53.657Z,98353.16
2023-05-05T09:17:58.257Z,98352.84
2023-05-05T09:21:01.382Z,98355.25
2023-05-05T09:24:11.737Z,98341.94
2023-05-05T09:27:22.896Z,98349.63
2023-05-05T09:30:27.692Z,98350.25
2023-05-05T09:36:58.596Z,98339.19
2023-05-05T09:40:02.033Z,98339.47
2023-05-05T09:43:05.084Z,98341.53
2023-05-05T09:46:09.375Z,98333.94
2023-05-05T09:49:18.121Z,98336.25
2023-05-05T09:52:21.209Z,98333.31
2023-05-05T09:55:24.667Z,98331.38
2023-05-05T09:58:28.813Z,98325.88
2023-05-05T10:01:32.951Z,98326.97
2023-05-05T10:04:36.024Z,98331.84
2023-05-05T10:07:40.062Z,98322.63
2023-05-05T10:10:50.430Z,98327.31
2023-05-05T10:13:53.498Z,98321.16
2023-05-05T10:16:59.585Z,98324.09
2023-05-05T10:20:03.928Z,98325.91
2023-05-05T10:23:09.413Z,98325.50
2023-05-05T10:26:15.475Z,98327.75
2023-05-05T10:29:28.449Z,98318.78
2023-05-05T10:35:51.810Z,98315.13
2023-05-05T10:38:57.854Z,98310.03
2023-05-05T10:42:02.986Z,98306.50
2023-05-05T10:45:07.133Z,98312.63
2023-05-05T10:48:33.961Z,98303.19
2023-05-05T10:51:45.318Z,98302.59
2023-05-05T10:54:53.738Z,98303.09
2023-05-05T10:57:57.072Z,98292.66
2023-05-05T11:01:00.254Z,98284.03
2023-05-05T11:04:21.175Z,98286.91
2023-05-05T11:07:26.334Z,98280.13
2023-05-05T11:10:45.281Z,98270.91
2023-05-05T11:13:48.062Z,98265.28
2023-05-05T11:16:51.019Z,98264.66
2023-05-05T11:19:55.265Z,98264.00
2023-05-05T11:23:23.369Z,98260.53
2023-05-05T11:26:52.421Z,98258.50
2023-05-05T11:30:10.747Z,98256.81
2023-05-05T11:33:26.034Z,98256.84
2023-05-05T11:36:41.759Z,98253.50
2023-05-05T11:39:54.670Z,98253.84
2023-05-05T11:43:05.945Z,98247.50
2023-05-05T11:46:12.599Z,98254.53
2023-05-05T11:49:27.548Z,98252.16
2023-05-05T11:52:31.834Z,98254.16
2023-05-05T11:55:34.911Z,98246.75
2023-05-05T11:58:37.876Z,98241.38
2023-05-05T12:01:41.780Z,98250.25
2023-05-05T12:04:44.664Z,98243.53
2023-05-05T12:07:49.091Z,98246.56
2023-05-05T12:10:51.962Z,98238.28
2023-05-05T12:14:09.347Z,98233.44
2023-05-05T12:17:12.169Z,98236.75
2023-05-05T12:20:15.001Z,98236.13
2023-05-05T12:23:19.212Z,98220.44
2023-05-05T12:26:29.024Z,98217.81
2023-05-05T12:29:31.760Z,98216.28
2023-05-05T12:32:34.522Z,98209.25
2023-05-05T12:35:37.853Z,98207.91
2023-05-05T12:38:42.656Z,98201.63
2023-05-05T12:41:45.740Z,98196.31
2023-05-05T12:44:49.177Z,98196.94
2023-05-05T12:47:52.090Z,98191.97
2023-05-05T12:50:55.124Z,98186.50
2023-05-05T12:54:07.240Z,98182.94
2023-05-05T12:57:12.431Z,98171.81
2023-05-05T13:00:17.533Z,98169.13
2023-05-05T13:03:20.696Z,98169.03
2023-05-05T13:06:24.739Z,98157.66
2023-05-05T13:09:30.997Z,98160.59
2023-05-05T13:12:33.713Z,98152.06
2023-05-05T13:15:36.599Z,98150.03
2023-05-05T13:18:46.162Z,98147.22
2023-05-05T13:21:49.128Z,98145.56
2023-05-05T13:24:53.657Z,98139.94
2023-05-05T13:27:56.527Z,98137.47
2023-05-05T13:30:59.927Z,98132.66
2023-05-05T13:34:02.697Z,98130.84
2023-05-05T13:37:05.433Z,98128.97
2023-05-05T13:40:13.362Z,98119.72
2023-05-05T13:43:16.241Z,98114.63
2023-05-05T13:46:20.369Z,98098.06
2023-05-05T13:49:23.835Z,98098.13
2023-05-05T13:52:27.577Z,98086.31
2023-05-05T13:55:32.700Z,98073.69
2023-05-05T13:58:37.211Z,98065.44
2023-05-05T14:01:40.686Z,98059.47
2023-05-05T14:04:43.547Z,98055.66
2023-05-05T14:07:46.964Z,98057.69
2023-05-05T14:10:52.170Z,98061.13
2023-05-05T14:13:55.216Z,98058.03
2023-05-05T14:16:58.223Z,98058.63
2023-05-05T14:20:01.274Z,98057.66
2023-05-05T14:23:04.282Z,98059.94
2023-05-05T14:26:09.547Z,98057.84
2023-05-05T14:29:12.239Z,98064.25
2023-05-05T14:32:15.136Z,98078.03
2023-05-05T14:35:18.396Z,98078.03
2023-05-05T14:38:21.280Z,98075.22
2023-05-05T14:41:28.357Z,98077.22
2023-05-05T14:44:31.466Z,98068.13
2023-05-05T14:47:34.741Z,98075.50
2023-05-05T14:50:38.632Z,98061.06
2023-05-05T14:53:42.191Z,98055.97
2023-05-05T14:56:46.398Z,98053.22
2023-05-05T14:59:51.944Z,98051.22
2023-05-05T15:02:54.782Z,98044.59
2023-05-05T15:05:57.791Z,98048.69
2023-05-05T15:09:00.540Z,98048.97
2023-05-05T15:12:04.930Z,98051.69
2023-05-05T15:15:09.477Z,98052.34
2023-05-05T15:18:12.446Z,98052.25
2023-05-05T15:21:15.330Z,98053.41
2023-05-05T15:24:18.327Z,98049.78
2023-05-05T15:27:22.915Z,98045.56
2023-05-05T15:30:26.935Z,98044.13
2023-05-05T15:33:30.911Z,98041.84
2023-05-05T15:36:33.684Z,98036.50
2023-05-05T15:39:36.402Z,98038.22
2023-05-05T15:42:40.798Z,98039.38
2023-05-05T15:45:44.354Z,98044.13
2023-05-05T15:48:47.199Z,98049.81
2023-05-05T15:51:50.177Z,98058.69
2023-05-05T15:54:53.158Z,98058.09
2023-05-05T15:57:57.490Z,98061.50
2023-05-05T16:01:00.649Z,98074.91
2023-05-05T16:04:03.687Z,98075.44
2023-05-05T16:07:06.358Z,98080.84
2023-05-05T16:10:10.718Z,98079.69
2023-05-05T16:13:14.838Z,98091.56
2023-05-05T16:16:17.733Z,98104.19
2023-05-05T16:19:20.851Z,98110.25
2023-05-05T16:22:23.760Z,98125.22
2023-05-05T16:25:26.459Z,98125.13
2023-05-05T16:28:30.623Z,98134.81
2023-05-05T16:31:34.071Z,98142.88
2023-05-05T16:34:36.834Z,98144.66
2023-05-05T16:37:39.496Z,98157.22
2023-05-05T16:40:42.248Z,98167.22
2023-05-05T16:43:46.304Z,98166.16
2023-05-05T16:46:49.148Z,98175.41
2023-05-05T16:49:52.518Z,98183.56
2023-05-05T16:52:56.349Z,98180.22
2023-05-05T16:55:59.054Z,98175.31
2023-05-05T16:59:03.098Z,98181.19
2023-05-05T17:02:05.920Z,98182.66
2023-05-05T17:05:09.735Z,98167.97
2023-05-05T17:08:14.193Z,98157.16
2023-05-05T17:11:17.222Z,98160.16
2023-05-05T17:14:21.280Z,98152.19
2023-05-05T17:17:23.997Z,98167.34
2023-05-05T17:20:26.814Z,98173.59
2023-05-05T17:23:29.524Z,98175.03
2023-05-05T17:26:32.269Z,98180.28
2023-05-05T17:29:40.959Z,98184.28
2023-05-05T17:32:43.686Z,98192.41
2023-05-05T17:35:47.192Z,98190.97
2023-05-05T17:38:49.952Z,98182.31
2023-05-05T17:41:52.785Z,98185.66
2023-05-05T17:44:56.801Z,98191.53
2023-05-05T17:47:59.718Z,98187.38
2023-05-05T17:51:02.779Z,98180.34
2023-05-05T17:54:05.773Z,98172.53
2023-05-05T17:57:08.452Z,98170.78
2023-05-05T18:00:13.794Z,98175.38
2023-05-05T18:03:16.609Z,98184.16
2023-05-05T18:06:19.560Z,98180.47
2023-05-05T18:09:22.404Z,98179.50
2023-05-05T18:12:25.784Z,98180.13
2023-05-05T18:15:30.760Z,98186.19
2023-05-05T18:18:33.537Z,98175.34
2023-05-05T18:21:36.503Z,98172.16
2023-05-05T18:24:39.320Z,98167.38
2023-05-05T18:27:43.605Z,98176.91
2023-05-05T18:30:48.011Z,98182.66
2023-05-05T18:33:50.733Z,98188.69
2023-05-05T18:36:54.249Z,98191.72
2023-05-05T18:39:57.228Z,98203.63
2023-05-05T18:42:59.966Z,98203.47
2023-05-05T18:46:04.080Z,98204.72
2023-05-05T18:49:07.386Z,98204.59
2023-05-05T18:52:10.104Z,98208.41
2023-05-05T18:55:12.785Z,98214.63
2023-05-05T18:58:16.722Z,98222.75
2023-05-05T19:01:20.848Z,98228.78
2023-05-05T19:04:30.610Z,98230.19
2023-05-05T19:07:35.801Z,98234.66
2023-05-05T19:10:38.901Z,98242.13
2023-05-05T19:13:41.756Z,98248.66
2023-05-05T19:16:45.968Z,98247.53
2023-05-05T19:19:49.167Z,98259.50
2023-05-05T19:22:51.950Z,98256.31
2023-05-05T19:25:54.768Z,98259.50
2023-05-05T19:28:57.430Z,98267.13
2023-05-05T19:32:01.489Z,98266.47
2023-05-05T19:35:06.764Z,98267.69
2023-05-05T19:38:10.886Z,98272.28
2023-05-05T19:41:13.698Z,98277.19
2023-05-05T19:44:16.549Z,98272.91
2023-05-05T19:47:20.878Z,98256.88
2023-05-05T19:50:24.092Z,98266.28
2023-05-05T19:53:27.823Z,98272.97
2023-05-05T19:56:30.548Z,98274.59
2023-05-05T19:59:33.670Z,98277.69
2023-05-05T20:02:38.118Z,98282.22
2023-05-05T20:05:41.034Z,98292.88
2023-05-05T20:08:43.911Z,98297.84
2023-05-05T20:11:46.728Z,98305.66
2023-05-05T20:14:49.683Z,98302.97
2023-05-05T20:17:53.740Z,98302.47
2023-05-05T20:20:56.513Z,98299.75
2023-05-05T20:23:59.656Z,98304.38
2023-05-05T20:27:03.269Z,98295.59
2023-05-05T20:30:07.403Z,98298.84
2023-05-05T20:33:11.743Z,98292.94
2023-05-05T20:36:14.449Z,98286.75
2023-05-05T20:39:17.272Z,98296.16
2023-05-05T20:42:20.050Z,98299.50
2023-05-05T20:45:22.791Z,98306.63
2023-05-05T20:48:26.860Z,98313.44
2023-05-05T20:51:32.027Z,98310.38
2023-05-05T20:54:34.772Z,98314.78
2023-05-05T20:57:37.555Z,98310.47
2023-05-05T21:00:40.682Z,98307.47
2023-05-05T21:03:44.828Z,98303.16
2023-05-05T21:06:47.495Z,98288.53
2023-05-05T21:09:50.499Z,98293.00
2023-05-05T21:12:53.320Z,98284.28
2023-05-05T21:15:56.102Z,98290.03
2023-05-05T21:19:00.533Z,98290.03
2023-05-05T21:22:03.180Z,98284.41
2023-05-05T21:25:11.188Z,98281.19
2023-05-05T21:28:13.914Z,98280.69
2023-05-05T21:34:23.806Z,98291.84
2023-05-05T21:37:26.763Z,98290.06
2023-05-05T21:40:29.505Z,98294.88
2023-05-05T21:43:32.190Z,98282.72
2023-05-05T21:46:35.065Z,98278.44
2023-05-05T21:49:39.254Z,98273.03
2023-05-05T21:52:41.960Z,98270.81
2023-05-05T21:55:45.582Z,98272.41
2023-05-05T21:58:48.353Z,98267.63
2023-05-05T22:01:51.189Z,98265.22
2023-05-05T22:04:55.477Z,98267.44
2023-05-05T22:07:58.308Z,98263.03
2023-05-05T22:11:01.694Z,98261.41
2023-05-05T22:14:04.393Z,98259.81
2023-05-05T22:17:07.764Z,98263.94
2023-05-05T22:20:12.662Z,98263.94
2023-05-05T22:23:16.172Z,98262.94
2023-05-05T22:26:18.953Z,98265.16
2023-05-05T22:29:21.777Z,98273.91
2023-05-05T22:32:24.559Z,98267.50
2023-05-05T22:35:28.643Z,98268.75
2023-05-05T22:38:31.394Z,98263.84
2023-05-05T22:41:34.156Z,98266.28
2023-05-05T22:44:37.058Z,98268.66
2023-05-05T22:47:39.867Z,98269.47
2023-05-05T22:50:44.139Z,98265.16
2023-05-05T22:53:46.856Z,98269.47
2023-05-05T22:56:49.710Z,98270.38
2023-05-05T22:59:52.472Z,98274.00
2023-05-05T23:02:55.342Z,98273.41
2023-05-05T23:05:59.867Z,98267.50
2023-05-05T23:09:02.738Z,98270.47
2023-05-05T23:12:05.533Z,98267.28
2023-05-05T23:15:09.979Z,98267.28
2023-05-05T23:18:13.072Z,98276.81
2023-05-05T23:21:17.292Z,98271.34
2023-05-05T23:24:20.176Z,98265.75
2023-05-05T23:27:23.718Z,98262.66
2023-05-05T23:30:26.484Z,98259.75
2023-05-05T23:33:29.147Z,98266.88
2023-05-05T23:36:33.266Z,98270.38
2023-05-05T23:39:36.144Z,98269.38
2023-05-05T23:42:38.927Z,98273.78
2023-05-05T23:45:41.719Z,98272.22
2023-05-05T23:48:44.392Z,98267.69
2023-05-05T23:51:48.464Z,98276.00
2023-05-05T23:54:51.247Z,98267.41
2023-05-05T23:57:54.019Z,98259.91
